Gulfport Biloxi International Airport Gulfport US
ICAO: KGPT
IATA: GPT
Category: Large
Scheduled Services: Yes

Elevation: 28 ft
TransAlt. 18000 ft.

Airport Communications:
APP/DEP:124.6
ATIS:119.45
CTAF:123.7
GND:120.4
ANG OPS:37.78
GREENWOOD RDO:109
TWR:123.7
UNICOM:122.95

KGPT Zoom In..

If you have problems with the map follow the link
https://www.worldairports.se/pages/airport.php?
ICAO=KGPT

Runways:

(A) RW 14 length 9002 ft width 150 ft
ILS 110.90 / hdg 133

(B) RW 18 length 4935 ft width 150 ft
---- / hdg 178

(C) RW 32 length 9002 ft width 150 ft
ILS 108.30 / hdg 313

(D) RW 36 length 4935 ft width 150 ft
---- / hdg 358

Location; KGPT
Day. 21 / Time. 06.53 Zulu
* Altimeter: 30.14
* Temperature: 18° c. 64.4°f.
* Wind from: 010° Speed 13 kn with Gusts up to 19 kn.
Dewpoint: 14° c.
Visibility: 10 Statute Miles.
Clouds: Overcast 7500 ft.

KGPT 210653Z AUTO 01013G19KT 10SM OVC075 18/14 A3014 RMK AO2 SLP206 T01830139 TSNO


Wind From 010°
Speed 13 kn.

 
 
jpsmedia.com for Web Design worldairports.se 2018   terms of use